createdAt,value
2017-02-14T00:00:03.867Z,22.91
2017-02-14T00:01:03.411Z,22.91
2017-02-14T00:02:03.360Z,22.87
2017-02-14T00:03:04.052Z,22.88
2017-02-14T00:04:04.016Z,22.91
2017-02-14T00:05:11.371Z,22.91
2017-02-14T00:06:03.484Z,22.88
2017-02-14T00:07:03.821Z,22.94
2017-02-14T00:08:03.720Z,22.96
2017-02-14T00:09:03.679Z,22.84
2017-02-14T00:10:03.231Z,22.96
2017-02-14T00:11:03.155Z,22.88
2017-02-14T00:12:03.091Z,22.91
2017-02-14T00:13:03.039Z,22.88
2017-02-14T00:14:03.353Z,22.91
2017-02-14T00:15:03.285Z,22.99
2017-02-14T00:16:02.843Z,22.99
2017-02-14T00:17:03.167Z,22.93
2017-02-14T00:18:03.082Z,22.91
2017-02-14T00:19:03.032Z,22.87
2017-02-14T00:20:02.587Z,22.91
2017-02-14T00:21:02.514Z,22.87
2017-02-14T00:22:02.449Z,22.9
2017-02-14T00:23:02.417Z,22.94
2017-02-14T00:24:02.728Z,22.94
2017-02-14T00:25:02.681Z,22.93
2017-02-14T00:26:02.189Z,22.87
2017-02-14T00:27:02.137Z,22.91
2017-02-14T00:28:02.080Z,22.98
2017-02-14T00:29:02.020Z,22.93
2017-02-14T00:30:01.968Z,22.94
2017-02-14T00:31:02.262Z,22.88
2017-02-14T00:32:01.812Z,22.94
2017-02-14T00:33:01.749Z,22.93
2017-02-14T00:34:01.692Z,22.94
2017-02-14T00:35:01.634Z,22.88
2017-02-14T00:36:01.951Z,22.87
2017-02-14T00:37:01.515Z,22.93
2017-02-14T00:38:01.882Z,22.91
2017-02-14T00:39:01.789Z,22.94
2017-02-14T00:40:01.316Z,22.93
2017-02-14T00:41:01.643Z,22.96
2017-02-14T00:42:01.576Z,22.91
2017-02-14T00:43:01.136Z,22.9
2017-02-14T00:44:01.438Z,22.94
2017-02-14T00:45:00.985Z,22.88
2017-02-14T00:46:00.937Z,22.93
2017-02-14T00:47:00.874Z,22.88
2017-02-14T00:48:00.790Z,22.93
2017-02-14T00:49:00.744Z,22.87
2017-02-14T00:50:00.659Z,22.9
2017-02-14T00:51:00.988Z,22.83
2017-02-14T00:52:00.548Z,22.91
2017-02-14T00:53:00.496Z,22.94
2017-02-14T00:54:00.802Z,22.93
2017-02-14T00:55:00.342Z,22.93
2017-02-14T00:56:00.282Z,22.93
2017-02-14T00:56:59.845Z,22.91
2017-02-14T00:58:00.160Z,22.93
2017-02-14T00:59:00.516Z,22.88
2017-02-14T01:00:00.027Z,22.91
2017-02-14T01:01:15.763Z,22.91
2017-02-14T01:02:15.332Z,22.9
2017-02-14T01:03:15.278Z,22.93
2017-02-14T01:04:14.837Z,22.94
2017-02-14T01:05:14.376Z,22.9
2017-02-14T01:06:14.697Z,22.91
2017-02-14T01:07:14.646Z,22.91
2017-02-14T01:08:14.954Z,22.96
2017-02-14T01:09:14.894Z,22.9
2017-02-14T01:10:14.443Z,22.96
2017-02-14T01:11:14.765Z,22.9
2017-02-14T01:12:14.728Z,22.93
2017-02-14T01:13:14.638Z,22.93
2017-02-14T01:14:14.606Z,22.96
2017-02-14T01:15:14.513Z,22.94
2017-02-14T01:16:14.440Z,22.8
2017-02-14T01:17:14.420Z,22.88
2017-02-14T01:18:14.315Z,22.76
2017-02-14T01:19:14.244Z,22.9
2017-02-14T01:20:14.193Z,22.88
2017-02-14T01:21:14.134Z,22.91
2017-02-14T01:22:14.054Z,22.93
2017-02-14T01:23:13.993Z,22.94
2017-02-14T01:24:13.929Z,22.78
2017-02-14T01:25:13.868Z,22.81
2017-02-14T01:26:13.801Z,22.94
2017-02-14T01:27:13.739Z,22.94
2017-02-14T01:28:13.680Z,22.94
2017-02-14T01:29:13.614Z,22.91
2017-02-14T01:30:13.544Z,22.83
2017-02-14T01:31:13.482Z,22.93
2017-02-14T01:32:13.437Z,22.87
2017-02-14T01:33:13.352Z,22.84
2017-02-14T01:34:13.292Z,22.85
2017-02-14T01:35:13.226Z,22.93
2017-02-14T01:36:13.163Z,22.98
2017-02-14T01:37:13.106Z,22.85
2017-02-14T01:38:12.651Z,22.9
2017-02-14T01:39:12.974Z,22.76
2017-02-14T01:40:12.905Z,22.93
2017-02-14T01:41:12.853Z,22.91
2017-02-14T01:42:13.127Z,22.88
2017-02-14T01:43:12.364Z,22.91
2017-02-14T01:44:12.652Z,22.91
2017-02-14T01:45:12.613Z,22.93
2017-02-14T01:46:12.176Z,22.76
2017-02-14T01:47:12.479Z,22.85
2017-02-14T01:48:12.029Z,22.93
2017-02-14T01:49:12.340Z,22.93
2017-02-14T01:50:11.886Z,22.81
2017-02-14T01:51:11.846Z,22.84
2017-02-14T01:52:11.771Z,22.83
2017-02-14T01:53:12.092Z,22.93
2017-02-14T01:54:11.659Z,22.91
2017-02-14T01:55:11.959Z,22.93
2017-02-14T01:56:11.542Z,22.91
2017-02-14T01:57:11.447Z,22.88
2017-02-14T01:58:11.769Z,22.83
2017-02-14T01:59:11.725Z,22.87
2017-02-14T02:00:11.642Z,22.9
2017-02-14T02:01:11.565Z,22.91
2017-02-14T02:02:11.126Z,22.83
2017-02-14T02:03:11.454Z,22.9
2017-02-14T02:04:11.374Z,22.93
2017-02-14T02:05:11.312Z,22.91
2017-02-14T02:06:11.261Z,22.85
2017-02-14T02:07:11.197Z,22.91
2017-02-14T02:08:11.126Z,22.83
2017-02-14T02:09:11.060Z,22.9
2017-02-14T02:10:10.993Z,22.8
2017-02-14T02:11:10.936Z,22.81
2017-02-14T02:12:10.485Z,22.94
2017-02-14T02:13:10.821Z,22.78
2017-02-14T02:14:10.746Z,22.87
2017-02-14T02:15:10.304Z,22.85
2017-02-14T02:16:10.627Z,22.81
2017-02-14T02:17:10.556Z,22.85
2017-02-14T02:18:10.097Z,22.81
2017-02-14T02:19:10.424Z,22.93
2017-02-14T02:20:10.354Z,22.84
2017-02-14T02:21:09.918Z,22.8
2017-02-14T02:22:09.860Z,22.83
2017-02-14T02:23:10.420Z,22.83
2017-02-14T02:24:09.732Z,22.93
2017-02-14T02:25:10.037Z,22.94
2017-02-14T02:26:09.975Z,22.88
2017-02-14T02:27:09.916Z,22.84
2017-02-14T02:28:09.867Z,22.81
2017-02-14T02:29:09.778Z,22.81
2017-02-14T02:30:09.333Z,22.81
2017-02-14T02:31:09.654Z,22.84
2017-02-14T02:32:09.204Z,22.81
2017-02-14T02:33:09.549Z,22.8
2017-02-14T02:34:09.463Z,22.83
2017-02-14T02:35:09.441Z,22.93
2017-02-14T02:36:08.949Z,22.93
2017-02-14T02:37:09.305Z,22.93
2017-02-14T02:38:09.213Z,22.9
2017-02-14T02:39:09.144Z,22.91
2017-02-14T02:40:08.727Z,22.81
2017-02-14T02:41:09.012Z,22.83
2017-02-14T02:42:08.958Z,22.87
2017-02-14T02:43:08.898Z,22.83
2017-02-14T02:44:08.452Z,22.8
2017-02-14T02:45:08.795Z,22.91
2017-02-14T02:46:08.693Z,22.8
2017-02-14T02:47:08.634Z,22.88
2017-02-14T02:48:08.571Z,22.88
2017-02-14T02:49:08.509Z,22.87
2017-02-14T02:50:08.067Z,22.83
2017-02-14T02:51:08.378Z,22.81
2017-02-14T02:52:08.314Z,22.84
2017-02-14T02:53:08.265Z,22.83
2017-02-14T02:54:07.800Z,22.8
2017-02-14T02:55:08.122Z,22.8
2017-02-14T02:56:08.071Z,22.9
2017-02-14T02:57:07.605Z,22.85
2017-02-14T02:58:07.943Z,22.8
2017-02-14T02:59:07.873Z,22.84
2017-02-14T03:00:07.814Z,22.91
2017-02-14T03:01:07.747Z,22.93
2017-02-14T03:02:07.301Z,22.8
2017-02-14T03:03:07.612Z,22.8
2017-02-14T03:04:07.554Z,22.84
2017-02-14T03:05:07.482Z,22.84
2017-02-14T03:06:07.035Z,22.76
2017-02-14T03:07:06.983Z,22.83
2017-02-14T03:08:07.295Z,22.83
2017-02-14T03:09:06.851Z,22.83
2017-02-14T03:10:06.782Z,22.8
2017-02-14T03:11:07.109Z,22.81
2017-02-14T03:12:07.043Z,22.84
2017-02-14T03:13:06.984Z,22.81
2017-02-14T03:14:06.908Z,22.8
2017-02-14T03:15:06.863Z,22.83
2017-02-14T03:16:06.821Z,22.76
2017-02-14T03:17:05.956Z,22.83
2017-02-14T03:18:06.652Z,22.81
2017-02-14T03:19:06.590Z,22.81
2017-02-14T03:20:06.533Z,22.81
2017-02-14T03:21:06.460Z,22.83
2017-02-14T03:22:06.422Z,22.8
2017-02-14T03:23:06.334Z,22.78
2017-02-14T03:24:06.265Z,22.8
2017-02-14T03:25:06.233Z,22.78
2017-02-14T03:26:06.142Z,22.81
2017-02-14T03:27:06.072Z,22.83
2017-02-14T03:28:06.018Z,22.81
2017-02-14T03:29:05.979Z,22.76
2017-02-14T03:30:05.510Z,22.91
2017-02-14T03:31:05.820Z,22.78
2017-02-14T03:32:05.763Z,22.78
2017-02-14T03:33:05.694Z,22.81
2017-02-14T03:34:05.644Z,22.81
2017-02-14T03:35:05.821Z,22.78
2017-02-14T03:36:05.507Z,22.84
2017-02-14T03:37:05.443Z,22.8
2017-02-14T03:38:05.464Z,22.85
2017-02-14T03:39:05.317Z,22.88
2017-02-14T03:40:05.256Z,22.87
2017-02-14T03:41:05.184Z,22.81
2017-02-14T03:42:05.118Z,22.83
2017-02-14T03:43:05.068Z,22.83
2017-02-14T03:44:04.631Z,22.83
2017-02-14T03:45:04.936Z,22.76
2017-02-14T03:46:04.868Z,22.85
2017-02-14T03:47:04.809Z,22.83
2017-02-14T03:48:04.738Z,22.8
2017-02-14T03:49:04.685Z,22.81
2017-02-14T03:50:04.625Z,22.83
2017-02-14T03:51:04.549Z,22.81
2017-02-14T03:52:04.482Z,22.87
2017-02-14T03:53:04.431Z,22.78
2017-02-14T03:54:03.973Z,22.84
2017-02-14T03:55:04.292Z,22.83
2017-02-14T03:56:04.227Z,22.8
2017-02-14T03:57:04.160Z,22.8
2017-02-14T03:58:04.097Z,22.84
2017-02-14T03:59:04.044Z,22.83
2017-02-14T04:00:03.980Z,22.87
2017-02-14T04:01:03.911Z,22.87
2017-02-14T04:02:03.844Z,22.84
2017-02-14T04:03:03.779Z,22.81
2017-02-14T04:04:03.740Z,22.78
2017-02-14T04:05:03.650Z,22.83
2017-02-14T04:06:03.601Z,22.81
2017-02-14T04:07:03.523Z,22.81
2017-02-14T04:08:03.471Z,22.78
2017-02-14T04:09:03.393Z,22.83
2017-02-14T04:10:03.331Z,22.83
2017-02-14T04:11:03.270Z,22.83
2017-02-14T04:12:03.214Z,22.83
2017-02-14T04:13:03.158Z,22.85
2017-02-14T04:14:03.078Z,22.78
2017-02-14T04:15:03.017Z,22.84
2017-02-14T04:16:02.957Z,22.84
2017-02-14T04:17:02.502Z,22.76
2017-02-14T04:18:02.859Z,22.84
2017-02-14T04:19:02.764Z,22.81
2017-02-14T04:20:02.705Z,22.81
2017-02-14T04:21:02.660Z,22.85
2017-02-14T04:22:02.574Z,22.84
2017-02-14T04:23:02.506Z,22.85
2017-02-14T04:24:02.437Z,22.84
2017-02-14T04:25:02.378Z,22.85
2017-02-14T04:26:02.310Z,22.83
2017-02-14T04:27:02.246Z,22.85
2017-02-14T04:28:02.183Z,22.76
2017-02-14T04:29:02.155Z,22.83
2017-02-14T04:30:01.682Z,22.78
2017-02-14T04:31:02.004Z,22.83
2017-02-14T04:32:01.925Z,22.76
2017-02-14T04:33:01.871Z,22.8
2017-02-14T04:34:01.806Z,22.76
2017-02-14T04:35:01.737Z,22.81
2017-02-14T04:36:01.668Z,22.8
2017-02-14T04:37:01.607Z,22.73
2017-02-14T04:38:01.552Z,22.78
2017-02-14T04:39:01.490Z,22.84
2017-02-14T04:40:01.436Z,22.81
2017-02-14T04:41:01.363Z,22.73
2017-02-14T04:42:01.303Z,22.87
2017-02-14T04:43:01.230Z,22.83
2017-02-14T04:44:01.165Z,22.81
2017-02-14T04:45:01.103Z,22.76
2017-02-14T04:46:01.047Z,22.83
2017-02-14T04:47:00.986Z,22.73
2017-02-14T04:48:00.919Z,22.81
2017-02-14T04:49:00.858Z,22.76
2017-02-14T04:50:00.794Z,22.8
2017-02-14T04:51:00.714Z,22.85
2017-02-14T04:52:00.656Z,22.76
2017-02-14T04:53:00.587Z,22.84
2017-02-14T04:54:00.525Z,22.76
2017-02-14T04:55:00.465Z,22.72
2017-02-14T04:56:00.406Z,22.87
2017-02-14T04:57:00.331Z,22.84
2017-02-14T04:58:00.265Z,22.76
2017-02-14T04:59:00.234Z,22.85
2017-02-14T05:00:00.144Z,22.76
2017-02-14T05:01:00.078Z,22.81
2017-02-14T05:02:00.024Z,22.84
2017-02-14T05:02:59.946Z,22.8
2017-02-14T05:03:59.901Z,22.72
2017-02-14T05:04:59.824Z,22.8
2017-02-14T05:05:59.757Z,22.75
2017-02-14T05:06:59.696Z,22.7
2017-02-14T05:07:59.637Z,22.76
2017-02-14T05:08:59.571Z,22.78
2017-02-14T05:09:59.512Z,22.69
2017-02-14T05:10:59.445Z,22.76
2017-02-14T05:11:59.370Z,22.76
2017-02-14T05:12:59.320Z,22.69
2017-02-14T05:13:59.266Z,22.73
2017-02-14T05:14:59.186Z,22.78
2017-02-14T05:15:59.124Z,22.73
2017-02-14T05:16:59.076Z,22.7
2017-02-14T05:17:58.990Z,22.69
2017-02-14T05:18:58.933Z,22.75
2017-02-14T05:19:58.862Z,22.66
2017-02-14T05:20:58.809Z,22.73
2017-02-14T05:21:58.745Z,22.63
2017-02-14T05:22:58.683Z,22.66
2017-02-14T05:23:58.604Z,22.69
2017-02-14T05:24:58.541Z,22.68
2017-02-14T05:25:58.489Z,22.73
2017-02-14T05:26:58.410Z,22.69
2017-02-14T05:27:58.359Z,22.75
2017-02-14T05:28:58.333Z,22.63
2017-02-14T05:29:58.232Z,22.68
2017-02-14T05:30:58.155Z,22.66
2017-02-14T05:31:58.099Z,22.65
2017-02-14T05:32:58.032Z,22.68
2017-02-14T05:33:57.973Z,22.6
2017-02-14T05:34:57.908Z,22.63
2017-02-14T05:35:57.450Z,22.59
2017-02-14T05:36:57.775Z,22.63
2017-02-14T05:37:57.708Z,22.66
2017-02-14T05:38:57.659Z,22.69
2017-02-14T05:39:57.582Z,22.59
2017-02-14T05:40:57.515Z,22.53
2017-02-14T05:41:57.480Z,22.6
2017-02-14T05:42:57.404Z,22.69
2017-02-14T05:43:57.323Z,22.68
2017-02-14T05:44:57.271Z,22.62
2017-02-14T05:45:57.196Z,22.65
2017-02-14T05:46:57.153Z,22.6
2017-02-14T05:47:57.100Z,22.65
2017-02-14T05:48:57.006Z,22.63
2017-02-14T05:49:56.951Z,22.68
2017-02-14T05:50:56.888Z,22.51
2017-02-14T05:51:56.840Z,22.54
2017-02-14T05:52:56.749Z,22.66
2017-02-14T05:53:56.682Z,22.55
2017-02-14T05:54:56.619Z,22.63
2017-02-14T05:55:56.820Z,22.62
2017-02-14T05:56:56.499Z,22.53
2017-02-14T05:57:56.431Z,22.57
2017-02-14T05:58:56.361Z,22.59
2017-02-14T05:59:56.299Z,22.68
2017-02-14T06:00:56.234Z,22.57
2017-02-14T06:01:56.197Z,22.65
2017-02-14T06:02:55.733Z,22.57
2017-02-14T06:03:56.044Z,22.6
2017-02-14T06:04:56.001Z,22.59
2017-02-14T06:05:55.913Z,22.6
2017-02-14T06:06:55.855Z,22.54
2017-02-14T06:07:55.790Z,22.66
2017-02-14T06:08:55.732Z,22.54
2017-02-14T06:09:55.678Z,22.55
2017-02-14T06:10:55.607Z,22.59
2017-02-14T06:11:55.530Z,22.54
2017-02-14T06:12:55.486Z,22.63
2017-02-14T06:13:55.413Z,22.68
2017-02-14T06:14:55.336Z,22.55
2017-02-14T06:15:55.280Z,22.69
2017-02-14T06:16:55.237Z,22.54
2017-02-14T06:17:55.150Z,22.54
2017-02-14T06:18:54.697Z,22.63
2017-02-14T06:19:54.634Z,22.59
2017-02-14T06:20:54.953Z,22.57
2017-02-14T06:21:54.889Z,22.65
2017-02-14T06:22:54.827Z,22.63
2017-02-14T06:23:54.785Z,22.63
2017-02-14T06:24:54.717Z,22.66
2017-02-14T06:25:54.641Z,22.6
2017-02-14T06:26:54.575Z,22.6
2017-02-14T06:27:54.517Z,22.51
2017-02-14T06:28:54.442Z,22.54
2017-02-14T06:29:54.383Z,22.55
2017-02-14T06:30:54.570Z,22.53
2017-02-14T06:31:53.868Z,22.57
2017-02-14T06:32:54.185Z,22.63
2017-02-14T06:33:54.137Z,22.65
2017-02-14T06:34:53.676Z,22.62
2017-02-14T06:35:53.995Z,22.65
2017-02-14T06:36:53.941Z,22.6
2017-02-14T06:37:53.513Z,22.66
2017-02-14T06:38:53.806Z,22.59
2017-02-14T06:39:53.746Z,22.66
2017-02-14T06:40:53.675Z,22.62
2017-02-14T06:41:53.612Z,22.59
2017-02-14T06:42:53.555Z,22.6
2017-02-14T06:43:53.506Z,22.69
2017-02-14T06:44:53.419Z,22.68
2017-02-14T06:45:53.353Z,22.51
2017-02-14T06:46:53.294Z,22.66
2017-02-14T06:47:53.227Z,22.72
2017-02-14T06:48:53.161Z,22.6
2017-02-14T06:49:53.109Z,22.69
2017-02-14T06:50:53.031Z,22.62
2017-02-14T06:51:52.968Z,22.63
2017-02-14T06:52:52.904Z,22.63
2017-02-14T06:53:52.871Z,22.62
2017-02-14T06:54:52.775Z,22.66
2017-02-14T06:55:52.712Z,22.59
2017-02-14T06:56:52.646Z,22.59
2017-02-14T06:57:52.598Z,22.69
2017-02-14T06:58:52.521Z,22.6
2017-02-14T06:59:52.471Z,22.72
2017-02-14T07:00:52.692Z,22.66
2017-02-14T07:01:52.326Z,22.6
2017-02-14T07:02:52.267Z,22.59
2017-02-14T07:03:52.201Z,22.59
2017-02-14T07:04:52.153Z,22.62
2017-02-14T07:05:52.330Z,22.68
2017-02-14T07:06:52.028Z,22.66
2017-02-14T07:07:51.953Z,22.66
2017-02-14T07:08:51.880Z,22.62
2017-02-14T07:09:51.812Z,22.66
2017-02-14T07:10:51.752Z,22.62
2017-02-14T07:11:51.698Z,22.66
2017-02-14T07:12:51.631Z,22.65
2017-02-14T07:13:51.560Z,22.69
2017-02-14T07:14:51.497Z,22.7
2017-02-14T07:15:51.442Z,22.59
2017-02-14T07:16:51.374Z,22.62
2017-02-14T07:17:51.305Z,22.69
2017-02-14T07:18:51.270Z,22.6
2017-02-14T07:19:51.173Z,22.65
2017-02-14T07:20:51.109Z,22.65
2017-02-14T07:21:51.046Z,22.65
2017-02-14T07:22:51.000Z,22.59
2017-02-14T07:23:50.936Z,22.63
2017-02-14T07:24:50.863Z,22.65
2017-02-14T07:25:50.805Z,22.62
2017-02-14T07:26:50.729Z,22.7
2017-02-14T07:27:50.661Z,22.63
2017-02-14T07:28:50.608Z,22.7
2017-02-14T07:29:50.541Z,22.66
2017-02-14T07:30:50.473Z,22.66
2017-02-14T07:31:50.426Z,22.6
2017-02-14T07:32:50.373Z,22.7
2017-02-14T07:33:50.277Z,22.62
2017-02-14T07:34:50.214Z,22.68
2017-02-14T07:35:50.149Z,22.65
2017-02-14T07:36:50.085Z,22.63
2017-02-14T07:37:50.030Z,22.68
2017-02-14T07:38:49.975Z,22.69
2017-02-14T07:39:49.893Z,22.65
2017-02-14T07:40:49.836Z,22.75
2017-02-14T07:41:49.778Z,22.7
2017-02-14T07:42:49.700Z,22.75
2017-02-14T07:43:49.645Z,22.7
2017-02-14T07:44:49.588Z,22.6
2017-02-14T07:45:49.518Z,22.68
2017-02-14T07:46:49.444Z,22.63
2017-02-14T07:47:49.398Z,22.72
2017-02-14T07:48:49.318Z,22.7
2017-02-14T07:49:49.265Z,22.7
2017-02-14T07:50:49.207Z,22.55
2017-02-14T07:51:49.128Z,22.68
2017-02-14T07:52:49.071Z,22.6
2017-02-14T07:53:48.997Z,22.75
2017-02-14T07:54:48.945Z,22.72
2017-02-14T07:55:48.896Z,22.66
2017-02-14T07:56:48.813Z,22.75
2017-02-14T07:57:48.756Z,22.7
2017-02-14T07:58:48.683Z,22.72
2017-02-14T07:59:48.634Z,22.75
2017-02-14T08:00:48.553Z,22.72
2017-02-14T08:01:48.487Z,22.75
2017-02-14T08:02:48.430Z,22.75
2017-02-14T08:03:48.364Z,22.73
2017-02-14T08:04:48.304Z,22.68
2017-02-14T08:05:48.238Z,22.7
2017-02-14T08:06:48.167Z,22.72
2017-02-14T08:07:48.107Z,22.75
2017-02-14T08:08:48.038Z,22.76
2017-02-14T08:09:47.971Z,22.73
2017-02-14T08:10:47.912Z,22.76
2017-02-14T08:11:47.867Z,22.73
2017-02-14T08:12:47.786Z,22.73
2017-02-14T08:13:47.716Z,22.76
2017-02-14T08:14:47.655Z,22.72
2017-02-14T08:15:47.588Z,22.73
2017-02-14T08:16:47.533Z,22.83
2017-02-14T08:17:47.473Z,22.76
2017-02-14T08:18:47.419Z,22.8
2017-02-14T08:19:47.350Z,22.73
2017-02-14T08:20:47.274Z,22.7
2017-02-14T08:21:47.211Z,22.76
2017-02-14T08:22:47.165Z,22.75
2017-02-14T08:23:47.076Z,22.72
2017-02-14T08:24:47.028Z,22.76
2017-02-14T08:25:46.872Z,22.73
2017-02-14T08:26:46.888Z,22.78
2017-02-14T08:27:46.835Z,22.76
2017-02-14T08:28:46.756Z,22.8
2017-02-14T08:29:46.315Z,22.75
2017-02-14T08:30:46.883Z,22.78
2017-02-14T08:31:46.574Z,22.75
2017-02-14T08:32:46.505Z,22.7
2017-02-14T08:33:46.449Z,22.73
2017-02-14T08:34:46.376Z,22.76
2017-02-14T08:35:46.620Z,22.76
2017-02-14T08:36:46.248Z,22.87
2017-02-14T08:37:46.207Z,22.81
2017-02-14T08:38:46.332Z,22.84
2017-02-14T08:39:45.291Z,22.76
2017-02-14T08:40:46.247Z,22.78
2017-02-14T08:41:45.554Z,22.75
2017-02-14T08:42:45.860Z,22.83
2017-02-14T08:43:45.427Z,22.76
2017-02-14T08:44:45.732Z,22.83
2017-02-14T08:45:45.977Z,22.76
2017-02-14T08:46:45.609Z,22.76
2017-02-14T08:47:45.548Z,22.81
2017-02-14T08:48:45.481Z,22.76
2017-02-14T08:49:45.036Z,22.8
2017-02-14T08:50:45.648Z,22.73
2017-02-14T08:51:44.918Z,22.81
2017-02-14T08:52:45.220Z,22.8
2017-02-14T08:53:45.169Z,22.81
2017-02-14T08:54:45.101Z,22.91
2017-02-14T08:55:45.295Z,22.9
2017-02-14T08:56:44.966Z,22.85
2017-02-14T08:57:44.913Z,22.85
2017-02-14T08:58:44.850Z,22.8
2017-02-14T08:59:44.781Z,22.84
2017-02-14T09:00:44.713Z,22.81
2017-02-14T09:01:44.262Z,22.8
2017-02-14T09:02:44.586Z,22.85
2017-02-14T09:03:44.531Z,22.75
2017-02-14T09:04:44.077Z,22.84
2017-02-14T09:05:46.235Z,22.83
2017-02-14T09:06:44.350Z,22.81
2017-02-14T09:07:44.514Z,22.76
2017-02-14T09:08:44.352Z,22.83
2017-02-14T09:09:43.836Z,22.81
2017-02-14T09:10:44.092Z,22.8
2017-02-14T09:11:44.022Z,22.84
2017-02-14T09:12:44.065Z,22.81
2017-02-14T09:13:43.889Z,22.88
2017-02-14T09:14:43.818Z,22.91
2017-02-14T09:15:44.109Z,22.8
2017-02-14T09:16:43.695Z,22.93
2017-02-14T09:17:43.624Z,22.94
2017-02-14T09:18:43.178Z,22.88
2017-02-14T09:19:43.496Z,22.98
2017-02-14T09:20:43.447Z,22.93
2017-02-14T09:21:43.387Z,22.98
2017-02-14T09:22:42.937Z,22.94
2017-02-14T09:23:42.865Z,22.9
2017-02-14T09:24:42.828Z,22.98
2017-02-14T09:25:43.120Z,22.94
2017-02-14T09:26:42.665Z,22.98
2017-02-14T09:27:42.987Z,22.99
2017-02-14T09:28:42.929Z,22.99
2017-02-14T09:29:42.485Z,23.02
2017-02-14T09:30:43.107Z,23.03
2017-02-14T09:31:42.370Z,22.99
2017-02-14T09:32:42.676Z,22.99
2017-02-14T09:33:42.278Z,23.02
2017-02-14T09:34:42.543Z,23.06
2017-02-14T09:35:42.450Z,23.02
2017-02-14T09:36:42.426Z,23.06
2017-02-14T09:37:42.349Z,23.06
2017-02-14T09:38:42.285Z,23.08
2017-02-14T09:39:42.226Z,23.1
2017-02-14T09:40:42.168Z,23.09
2017-02-14T09:41:41.974Z,23.13
2017-02-14T09:42:42.033Z,23.08
2017-02-14T09:43:41.909Z,23.12
2017-02-14T09:44:41.534Z,23.06
2017-02-14T09:45:41.838Z,23.18
2017-02-14T09:46:42.027Z,23.08
2017-02-14T09:47:41.718Z,23.09
2017-02-14T09:48:41.668Z,23.12
2017-02-14T09:49:41.580Z,23.06
2017-02-14T09:50:41.531Z,23.12
2017-02-14T09:51:41.334Z,23.08
2017-02-14T09:52:41.434Z,23.12
2017-02-14T09:53:41.001Z,23.1
2017-02-14T09:54:40.882Z,23.18
2017-02-14T09:55:41.571Z,23.13
2017-02-14T09:56:41.163Z,23.06
2017-02-14T09:57:41.080Z,23.13
2017-02-14T09:58:41.011Z,23.13
2017-02-14T09:59:40.959Z,23.13
2017-02-14T10:00:40.896Z,23.15
2017-02-14T10:01:40.820Z,23.15
2017-02-14T10:02:40.764Z,23.1
2017-02-14T10:03:40.746Z,23.15
2017-02-14T10:04:40.255Z,23.1
2017-02-14T10:05:40.569Z,23.15
2017-02-14T10:06:40.518Z,23.12
2017-02-14T10:07:40.466Z,23.2
2017-02-14T10:08:40.373Z,23.13
2017-02-14T10:09:40.334Z,23.18
2017-02-14T10:10:40.249Z,23.13
2017-02-14T10:11:39.802Z,23.13
2017-02-14T10:12:40.167Z,23.13
2017-02-14T10:13:39.696Z,23.09
2017-02-14T10:14:40.011Z,23.13
2017-02-14T10:15:39.801Z,23.13
2017-02-14T10:16:39.868Z,23.12
2017-02-14T10:17:39.804Z,23.2
2017-02-14T10:18:39.749Z,23.09
2017-02-14T10:19:39.688Z,23.09
2017-02-14T10:20:39.911Z,23.08
2017-02-14T10:21:39.571Z,23.17
2017-02-14T10:22:39.496Z,23.18
2017-02-14T10:23:39.424Z,23.15
2017-02-14T10:24:39.355Z,23.15
2017-02-14T10:25:39.298Z,23.1
2017-02-14T10:26:39.234Z,23.15
2017-02-14T10:27:39.216Z,23.15
2017-02-14T10:28:39.133Z,23.12
2017-02-14T10:29:39.041Z,23.18
2017-02-14T10:30:38.981Z,23.12
2017-02-14T10:31:38.913Z,23.13
2017-02-14T10:32:38.854Z,23.15
2017-02-14T10:33:38.798Z,23.1
2017-02-14T10:34:38.358Z,23.06
2017-02-14T10:35:38.665Z,23.15
2017-02-14T10:36:38.599Z,23.15
2017-02-14T10:37:38.543Z,23.15
2017-02-14T10:38:38.470Z,23.2
2017-02-14T10:39:38.403Z,23.15
2017-02-14T10:40:38.349Z,23.2
2017-02-14T10:41:38.299Z,23.21
2017-02-14T10:42:38.226Z,23.15
2017-02-14T10:43:38.167Z,23.17
2017-02-14T10:44:37.706Z,23.13
2017-02-14T10:45:38.023Z,23.15
2017-02-14T10:46:37.591Z,23.23
2017-02-14T10:47:37.522Z,23.18
2017-02-14T10:48:37.447Z,23.15
2017-02-14T10:49:37.388Z,23.18
2017-02-14T10:50:37.716Z,23.2
2017-02-14T10:51:37.662Z,23.08
2017-02-14T10:52:37.584Z,23.2
2017-02-14T10:53:37.513Z,23.18
2017-02-14T10:54:37.453Z,23.15
2017-02-14T10:55:37.393Z,23.17
2017-02-14T10:56:37.332Z,23.18
2017-02-14T10:57:37.279Z,23.17
2017-02-14T10:58:37.547Z,23.12
2017-02-14T10:59:37.138Z,23.13
2017-02-14T11:00:37.081Z,23.13
2017-02-14T11:01:36.642Z,23.15
2017-02-14T11:02:36.559Z,23.13
2017-02-14T11:03:36.493Z,23.18
2017-02-14T11:04:36.814Z,23.17
2017-02-14T11:05:36.752Z,23.12
2017-02-14T11:06:36.898Z,23.21
2017-02-14T11:07:36.684Z,23.08
2017-02-14T11:08:36.281Z,23.15
2017-02-14T11:09:36.127Z,23.12
2017-02-14T11:10:36.435Z,23.13
2017-02-14T11:11:36.377Z,23.1
2017-02-14T11:12:36.307Z,23.25
2017-02-14T11:13:36.248Z,23.21
2017-02-14T11:14:36.184Z,23.17
2017-02-14T11:15:36.120Z,23.13
2017-02-14T11:16:36.054Z,23.2
2017-02-14T11:17:36.012Z,23.21
2017-02-14T11:18:35.932Z,23.15
2017-02-14T11:19:35.878Z,23.1
2017-02-14T11:20:36.052Z,23.2
2017-02-14T11:21:35.746Z,23.13
2017-02-14T11:22:35.675Z,23.17
2017-02-14T11:23:35.655Z,23.15
2017-02-14T11:24:35.542Z,23.15
2017-02-14T11:25:35.480Z,23.2
2017-02-14T11:26:35.422Z,23.13
2017-02-14T11:27:35.367Z,23.1
2017-02-14T11:28:35.289Z,23.13
2017-02-14T11:29:35.225Z,23.13
2017-02-14T11:30:34.780Z,23.13
2017-02-14T11:31:35.100Z,23.13
2017-02-14T11:32:35.038Z,23.13
2017-02-14T11:33:35.324Z,23.15
2017-02-14T11:34:34.910Z,23.15
2017-02-14T11:35:34.845Z,23.13
2017-02-14T11:36:34.844Z,23.15
2017-02-14T11:37:34.733Z,23.05
2017-02-14T11:38:34.654Z,23.03
2017-02-14T11:39:34.618Z,23.05
2017-02-14T11:40:34.523Z,23.06
2017-02-14T11:41:34.462Z,23.1
2017-02-14T11:42:34.419Z,23.08
2017-02-14T11:43:34.390Z,23.17
2017-02-14T11:44:34.315Z,23.08
2017-02-14T11:45:34.208Z,23.12
2017-02-14T11:46:33.762Z,23.06
2017-02-14T11:47:34.080Z,23.17
2017-02-14T11:48:33.650Z,23.1
2017-02-14T11:49:33.956Z,23.06
2017-02-14T11:50:33.887Z,23.13
2017-02-14T11:51:33.076Z,23.1
2017-02-14T11:52:33.774Z,23.09
2017-02-14T11:53:33.323Z,23.15
2017-02-14T11:54:33.652Z,23.12
2017-02-14T11:55:33.595Z,23.1
2017-02-14T11:56:33.517Z,23.08
2017-02-14T11:57:33.444Z,23.1
2017-02-14T11:58:33.389Z,23.13
2017-02-14T11:59:33.320Z,23.13
2017-02-14T12:00:33.256Z,23.13
2017-02-14T12:01:33.193Z,23.23
2017-02-14T12:02:33.128Z,23.23
2017-02-14T12:03:33.065Z,23.21
2017-02-14T12:04:33.012Z,23.32
2017-02-14T12:05:32.942Z,23.27
2017-02-14T12:06:32.876Z,23.28
2017-02-14T12:07:32.837Z,23.34
2017-02-14T12:08:32.493Z,23.36
2017-02-14T12:09:32.702Z,23.4
2017-02-14T12:10:32.874Z,23.41
2017-02-14T12:11:32.585Z,23.39
2017-02-14T12:12:32.547Z,23.47
2017-02-14T12:13:32.430Z,23.4
2017-02-14T12:14:32.368Z,23.44
2017-02-14T12:15:32.312Z,23.44
2017-02-14T12:16:32.239Z,23.54
2017-02-14T12:17:32.184Z,23.54
2017-02-14T12:18:32.116Z,23.5
2017-02-14T12:19:32.070Z,23.56
2017-02-14T12:20:32.071Z,23.51
2017-02-14T12:21:31.925Z,23.55
2017-02-14T12:22:31.870Z,23.58
2017-02-14T12:23:31.807Z,23.58
2017-02-14T12:24:31.747Z,23.48
2017-02-14T12:25:31.684Z,23.46
2017-02-14T12:26:31.611Z,23.56
2017-02-14T12:27:31.550Z,23.55
2017-02-14T12:28:31.491Z,23.5
2017-02-14T12:29:31.416Z,23.5
2017-02-14T12:30:31.377Z,23.51
2017-02-14T12:31:31.293Z,23.44
2017-02-14T12:32:31.237Z,23.48
2017-02-14T12:33:31.179Z,23.55
2017-02-14T12:34:31.114Z,23.63
2017-02-14T12:35:30.730Z,23.58
2017-02-14T12:36:31.117Z,23.63
2017-02-14T12:37:31.182Z,23.69
2017-02-14T12:38:31.031Z,23.69
2017-02-14T12:39:30.534Z,23.65
2017-02-14T12:40:30.470Z,23.73
2017-02-14T12:41:30.805Z,23.73
2017-02-14T12:42:30.697Z,23.73
2017-02-14T12:43:30.667Z,23.78
2017-02-14T12:44:30.579Z,23.78
2017-02-14T12:45:30.673Z,23.8
2017-02-14T12:46:29.975Z,23.77
2017-02-14T12:47:30.293Z,23.8
2017-02-14T12:48:30.217Z,23.83
2017-02-14T12:49:30.155Z,23.83
2017-02-14T12:50:30.442Z,23.8
2017-02-14T12:51:30.030Z,23.8
2017-02-14T12:52:29.991Z,23.84
2017-02-14T12:53:29.532Z,23.8
2017-02-14T12:54:29.847Z,23.99
2017-02-14T12:55:29.781Z,23.87